Rechercher aéroport 
image banner adimage banner ad
image banner ad

SSKX - Fazenda São Luíz do Matão Airport

Situé à Carneirinho, Brazil

ICAO - SSKX, IATA -

Données fournies par Airmate  

Information générale

Coordonnées: S11°25'19" W37°19'25"
Élévation : 9 feet MSL.
Variation magnétique : -23° East
Voir autres Aéroports à Sergipe

Données opérationnelles

Accessible au public
Heure actuelle UTC:
Heure actuelle locale:
Météo à : SBAR - Santa Maria ( 56 km )
METAR: SBAR 030500Z 09010KT 9999 SCT017 26/23 Q1012
TAF: TAF SBAR 022100Z 0300/0324 13010KT 9999 SCT017 TN25/0308Z TX29/0317Z BECMG 0305/0307 SCT015 BECMG 0310/0312 11015KT SCT030 BECMG 0318/0320 14010KT FEW030 RMK PGZ
Voir NOTAMs / SUP AIP / TFR affectant cet aéroport [VIEW]
Fréquences de communication: [VIEW]

Pistes:

Identifiant RWYQFULongueur (ft)Largeur (ft)SurfaceLDA (ft)
13164059DIRT
31164059DIRT

Coordonnées de l'aéroport

Adresse: Carneirinho Brazil

Vue satellite de SSKX